sensor_id;sensor_type;location;lat;lon;timestamp;temperature;humidity
25906;DHT22;13713;52.552;13.204;2023-07-29T00:00:19;23.50;74.70
25906;DHT22;13713;52.552;13.204;2023-07-29T00:02:45;23.50;74.70
25906;DHT22;13713;52.552;13.204;2023-07-29T00:05:11;23.50;74.70
25906;DHT22;13713;52.552;13.204;2023-07-29T00:07:36;23.50;74.60
25906;DHT22;13713;52.552;13.204;2023-07-29T00:10:02;23.50;74.60
25906;DHT22;13713;52.552;13.204;2023-07-29T00:12:28;23.50;74.60
25906;DHT22;13713;52.552;13.204;2023-07-29T00:14:54;23.50;74.50
25906;DHT22;13713;52.552;13.204;2023-07-29T00:17:20;23.50;74.50
25906;DHT22;13713;52.552;13.204;2023-07-29T00:19:46;23.50;74.50
25906;DHT22;13713;52.552;13.204;2023-07-29T00:22:12;23.50;74.50
25906;DHT22;13713;52.552;13.204;2023-07-29T00:24:39;23.50;74.50
25906;DHT22;13713;52.552;13.204;2023-07-29T00:27:04;23.40;74.40
25906;DHT22;13713;52.552;13.204;2023-07-29T00:29:30;23.50;74.40
25906;DHT22;13713;52.552;13.204;2023-07-29T00:31:56;23.40;74.40
25906;DHT22;13713;52.552;13.204;2023-07-29T00:34:21;23.40;74.30
25906;DHT22;13713;52.552;13.204;2023-07-29T00:36:47;23.40;74.30
25906;DHT22;13713;52.552;13.204;2023-07-29T00:39:12;23.40;74.30
25906;DHT22;13713;52.552;13.204;2023-07-29T00:41:38;23.50;74.50
25906;DHT22;13713;52.552;13.204;2023-07-29T00:44:04;23.40;74.20
25906;DHT22;13713;52.552;13.204;2023-07-29T00:46:30;23.40;74.20
25906;DHT22;13713;52.552;13.204;2023-07-29T00:48:56;23.40;74.20
25906;DHT22;13713;52.552;13.204;2023-07-29T00:51:23;23.40;74.20
25906;DHT22;13713;52.552;13.204;2023-07-29T00:53:49;23.40;74.10
25906;DHT22;13713;52.552;13.204;2023-07-29T00:56:14;23.40;74.10
25906;DHT22;13713;52.552;13.204;2023-07-29T00:58:40;23.40;74.10
25906;DHT22;13713;52.552;13.204;2023-07-29T01:01:05;23.40;74.10
25906;DHT22;13713;52.552;13.204;2023-07-29T01:03:31;23.40;74.10
25906;DHT22;13713;52.552;13.204;2023-07-29T01:08:27;23.40;74.10
25906;DHT22;13713;52.552;13.204;2023-07-29T01:11:01;23.40;74.10
25906;DHT22;13713;52.552;13.204;2023-07-29T01:13:33;23.40;74.10
25906;DHT22;13713;52.552;13.204;2023-07-29T01:16:10;23.40;74.10
25906;DHT22;13713;52.552;13.204;2023-07-29T01:18:37;23.40;74.00
25906;DHT22;13713;52.552;13.204;2023-07-29T01:21:04;23.40;74.00
25906;DHT22;13713;52.552;13.204;2023-07-29T01:23:33;23.40;74.00
25906;DHT22;13713;52.552;13.204;2023-07-29T01:25:59;23.40;74.00
25906;DHT22;13713;52.552;13.204;2023-07-29T01:28:24;23.40;74.00
25906;DHT22;13713;52.552;13.204;2023-07-29T01:30:51;23.40;73.90
25906;DHT22;13713;52.552;13.204;2023-07-29T01:34:01;23.40;74.00
25906;DHT22;13713;52.552;13.204;2023-07-29T01:36:10;23.40;73.90
25906;DHT22;13713;52.552;13.204;2023-07-29T01:38:36;23.40;73.90
25906;DHT22;13713;52.552;13.204;2023-07-29T01:41:04;23.40;73.90
25906;DHT22;13713;52.552;13.204;2023-07-29T01:43:31;23.40;73.90
25906;DHT22;13713;52.552;13.204;2023-07-29T01:45:57;23.40;73.90
25906;DHT22;13713;52.552;13.204;2023-07-29T01:48:23;23.40;73.80
25906;DHT22;13713;52.552;13.204;2023-07-29T01:50:50;23.40;73.80
25906;DHT22;13713;52.552;13.204;2023-07-29T01:53:15;23.40;73.80
25906;DHT22;13713;52.552;13.204;2023-07-29T01:55:41;23.40;73.80
25906;DHT22;13713;52.552;13.204;2023-07-29T01:58:07;23.40;73.80
25906;DHT22;13713;52.552;13.204;2023-07-29T02:00:35;23.40;73.80
25906;DHT22;13713;52.552;13.204;2023-07-29T02:03:01;23.40;73.70
25906;DHT22;13713;52.552;13.204;2023-07-29T02:05:26;23.30;73.70
25906;DHT22;13713;52.552;13.204;2023-07-29T02:07:52;23.40;73.70
25906;DHT22;13713;52.552;13.204;2023-07-29T02:10:17;23.40;73.70
25906;DHT22;13713;52.552;13.204;2023-07-29T02:12:43;23.30;73.60
25906;DHT22;13713;52.552;13.204;2023-07-29T02:15:09;23.30;73.60
25906;DHT22;13713;52.552;13.204;2023-07-29T02:17:35;23.40;73.70
25906;DHT22;13713;52.552;13.204;2023-07-29T02:20:01;23.40;73.70
25906;DHT22;13713;52.552;13.204;2023-07-29T02:22:27;23.30;73.60
25906;DHT22;13713;52.552;13.204;2023-07-29T02:24:52;23.30;73.50
25906;DHT22;13713;52.552;13.204;2023-07-29T02:27:18;23.30;73.50
25906;DHT22;13713;52.552;13.204;2023-07-29T02:29:44;23.30;73.50
25906;DHT22;13713;52.552;13.204;2023-07-29T02:32:09;23.30;73.50
25906;DHT22;13713;52.552;13.204;2023-07-29T02:34:35;23.30;73.50
25906;DHT22;13713;52.552;13.204;2023-07-29T02:37:01;23.30;73.50
25906;DHT22;13713;52.552;13.204;2023-07-29T02:39:26;23.30;73.50
25906;DHT22;13713;52.552;13.204;2023-07-29T02:41:52;23.30;73.50
25906;DHT22;13713;52.552;13.204;2023-07-29T02:44:18;23.40;73.50
25906;DHT22;13713;52.552;13.204;2023-07-29T02:46:44;23.30;74.30
25906;DHT22;13713;52.552;13.204;2023-07-29T02:49:10;23.30;73.40
25906;DHT22;13713;52.552;13.204;2023-07-29T02:51:36;23.30;73.40
25906;DHT22;13713;52.552;13.204;2023-07-29T02:54:01;23.30;73.40
25906;DHT22;13713;52.552;13.204;2023-07-29T02:56:27;23.30;73.40
25906;DHT22;13713;52.552;13.204;2023-07-29T02:58:53;23.30;73.40
25906;DHT22;13713;52.552;13.204;2023-07-29T03:01:19;23.30;73.40
25906;DHT22;13713;52.552;13.204;2023-07-29T03:03:44;23.30;73.40
25906;DHT22;13713;52.552;13.204;2023-07-29T03:06:12;23.30;73.40
25906;DHT22;13713;52.552;13.204;2023-07-29T03:08:38;23.30;73.30
25906;DHT22;13713;52.552;13.204;2023-07-29T03:11:07;23.30;73.40
25906;DHT22;13713;52.552;13.204;2023-07-29T03:13:33;23.30;73.30
25906;DHT22;13713;52.552;13.204;2023-07-29T03:16:09;23.30;73.30
25906;DHT22;13713;52.552;13.204;2023-07-29T03:18:36;23.30;73.30
25906;DHT22;13713;52.552;13.204;2023-07-29T03:21:02;23.30;73.30
25906;DHT22;13713;52.552;13.204;2023-07-29T03:23:28;23.30;73.30
25906;DHT22;13713;52.552;13.204;2023-07-29T03:25:57;23.30;73.30
25906;DHT22;13713;52.552;13.204;2023-07-29T03:28:25;23.30;73.30
25906;DHT22;13713;52.552;13.204;2023-07-29T03:30:50;23.30;73.20
25906;DHT22;13713;52.552;13.204;2023-07-29T03:33:16;23.30;73.20
25906;DHT22;13713;52.552;13.204;2023-07-29T03:35:42;23.30;73.30
25906;DHT22;13713;52.552;13.204;2023-07-29T03:38:10;23.30;73.20
25906;DHT22;13713;52.552;13.204;2023-07-29T03:40:37;23.30;73.20
25906;DHT22;13713;52.552;13.204;2023-07-29T03:43:02;23.30;73.20
25906;DHT22;13713;52.552;13.204;2023-07-29T03:45:28;23.30;73.20
25906;DHT22;13713;52.552;13.204;2023-07-29T03:47:53;23.30;73.20
25906;DHT22;13713;52.552;13.204;2023-07-29T03:50:19;23.30;73.20
25906;DHT22;13713;52.552;13.204;2023-07-29T03:52:45;23.30;73.20
25906;DHT22;13713;52.552;13.204;2023-07-29T03:55:10;23.30;73.20
25906;DHT22;13713;52.552;13.204;2023-07-29T03:57:36;23.30;73.20
25906;DHT22;13713;52.552;13.204;2023-07-29T04:00:02;23.30;73.20
25906;DHT22;13713;52.552;13.204;2023-07-29T04:02:29;23.30;73.10
25906;DHT22;13713;52.552;13.204;2023-07-29T04:04:55;23.30;73.10
25906;DHT22;13713;52.552;13.204;2023-07-29T04:07:21;23.30;73.10
25906;DHT22;13713;52.552;13.204;2023-07-29T04:09:47;23.30;73.10
25906;DHT22;13713;52.552;13.204;2023-07-29T04:12:13;23.30;73.10
25906;DHT22;13713;52.552;13.204;2023-07-29T04:14:38;23.20;73.00
25906;DHT22;13713;52.552;13.204;2023-07-29T04:17:04;23.30;73.10
25906;DHT22;13713;52.552;13.204;2023-07-29T04:19:30;23.30;73.00
25906;DHT22;13713;52.552;13.204;2023-07-29T04:21:56;23.30;73.00
25906;DHT22;13713;52.552;13.204;2023-07-29T04:24:22;23.30;73.00
25906;DHT22;13713;52.552;13.204;2023-07-29T04:26:49;23.20;72.90
25906;DHT22;13713;52.552;13.204;2023-07-29T04:29:14;23.30;73.00
25906;DHT22;13713;52.552;13.204;2023-07-29T04:31:40;23.20;72.90
25906;DHT22;13713;52.552;13.204;2023-07-29T04:34:06;23.20;72.90
25906;DHT22;13713;52.552;13.204;2023-07-29T04:36:32;23.30;73.00
25906;DHT22;13713;52.552;13.204;2023-07-29T04:38:58;23.30;72.90
25906;DHT22;13713;52.552;13.204;2023-07-29T04:41:23;23.30;72.90
25906;DHT22;13713;52.552;13.204;2023-07-29T04:43:50;23.30;72.90
25906;DHT22;13713;52.552;13.204;2023-07-29T04:46:16;23.20;72.80
25906;DHT22;13713;52.552;13.204;2023-07-29T04:48:41;23.30;72.80
25906;DHT22;13713;52.552;13.204;2023-07-29T04:51:07;23.30;73.00
25906;DHT22;13713;52.552;13.204;2023-07-29T04:53:32;23.20;72.80
25906;DHT22;13713;52.552;13.204;2023-07-29T04:56:00;23.30;72.90
25906;DHT22;13713;52.552;13.204;2023-07-29T04:58:26;23.30;72.90
25906;DHT22;13713;52.552;13.204;2023-07-29T05:00:54;23.30;73.70
25906;DHT22;13713;52.552;13.204;2023-07-29T05:03:19;23.30;72.90
25906;DHT22;13713;52.552;13.204;2023-07-29T05:05:45;23.30;72.90
25906;DHT22;13713;52.552;13.204;2023-07-29T05:08:11;23.20;72.90
25906;DHT22;13713;52.552;13.204;2023-07-29T05:10:37;23.30;72.90
25906;DHT22;13713;52.552;13.204;2023-07-29T05:13:02;23.30;72.90
25906;DHT22;13713;52.552;13.204;2023-07-29T05:15:28;23.30;73.00
25906;DHT22;13713;52.552;13.204;2023-07-29T05:17:56;23.30;73.00
25906;DHT22;13713;52.552;13.204;2023-07-29T05:20:21;23.30;73.00
25906;DHT22;13713;52.552;13.204;2023-07-29T05:22:47;23.30;73.00
25906;DHT22;13713;52.552;13.204;2023-07-29T05:25:13;23.30;73.00
25906;DHT22;13713;52.552;13.204;2023-07-29T05:27:38;23.30;73.00
25906;DHT22;13713;52.552;13.204;2023-07-29T05:30:04;23.30;72.90
25906;DHT22;13713;52.552;13.204;2023-07-29T05:32:30;23.30;73.00
25906;DHT22;13713;52.552;13.204;2023-07-29T05:34:56;23.30;72.90
25906;DHT22;13713;52.552;13.204;2023-07-29T05:37:22;23.30;72.90
25906;DHT22;13713;52.552;13.204;2023-07-29T05:39:48;23.30;73.00
25906;DHT22;13713;52.552;13.204;2023-07-29T05:42:14;23.30;72.90
25906;DHT22;13713;52.552;13.204;2023-07-29T05:44:39;23.30;72.90
25906;DHT22;13713;52.552;13.204;2023-07-29T05:47:05;23.30;72.90
25906;DHT22;13713;52.552;13.204;2023-07-29T05:49:31;23.30;73.00
25906;DHT22;13713;52.552;13.204;2023-07-29T05:51:56;23.30;72.90
25906;DHT22;13713;52.552;13.204;2023-07-29T05:54:22;23.30;73.00
25906;DHT22;13713;52.552;13.204;2023-07-29T05:56:47;23.30;73.00
25906;DHT22;13713;52.552;13.204;2023-07-29T05:59:13;23.30;72.90
25906;DHT22;13713;52.552;13.204;2023-07-29T06:01:39;23.30;73.00
25906;DHT22;13713;52.552;13.204;2023-07-29T06:04:05;23.30;73.00
25906;DHT22;13713;52.552;13.204;2023-07-29T06:06:31;23.30;73.70
25906;DHT22;13713;52.552;13.204;2023-07-29T06:08:56;23.30;72.80
25906;DHT22;13713;52.552;13.204;2023-07-29T06:11:23;23.30;72.90
25906;DHT22;13713;52.552;13.204;2023-07-29T06:13:49;23.40;72.90
25906;DHT22;13713;52.552;13.204;2023-07-29T06:16:15;23.40;72.90
25906;DHT22;13713;52.552;13.204;2023-07-29T06:18:41;23.40;72.90
25906;DHT22;13713;52.552;13.204;2023-07-29T06:21:07;23.40;72.80
25906;DHT22;13713;52.552;13.204;2023-07-29T06:23:35;23.40;72.80
25906;DHT22;13713;52.552;13.204;2023-07-29T06:26:01;23.50;72.80
25906;DHT22;13713;52.552;13.204;2023-07-29T06:28:27;23.50;72.60
25906;DHT22;13713;52.552;13.204;2023-07-29T06:30:52;23.50;72.50
25906;DHT22;13713;52.552;13.204;2023-07-29T06:33:18;23.50;72.50
25906;DHT22;13713;52.552;13.204;2023-07-29T06:35:44;23.60;72.50
25906;DHT22;13713;52.552;13.204;2023-07-29T06:38:09;23.60;72.40
25906;DHT22;13713;52.552;13.204;2023-07-29T06:40:35;23.60;72.30
25906;DHT22;13713;52.552;13.204;2023-07-29T06:43:00;23.60;72.20
25906;DHT22;13713;52.552;13.204;2023-07-29T06:45:26;23.60;72.10
25906;DHT22;13713;52.552;13.204;2023-07-29T06:47:52;23.60;72.10
25906;DHT22;13713;52.552;13.204;2023-07-29T06:50:17;23.60;72.00
25906;DHT22;13713;52.552;13.204;2023-07-29T06:52:43;23.60;72.10
25906;DHT22;13713;52.552;13.204;2023-07-29T06:55:09;23.60;72.00
25906;DHT22;13713;52.552;13.204;2023-07-29T06:57:34;23.60;72.00
25906;DHT22;13713;52.552;13.204;2023-07-29T07:00:00;23.60;71.90
25906;DHT22;13713;52.552;13.204;2023-07-29T07:02:26;23.60;71.90
25906;DHT22;13713;52.552;13.204;2023-07-29T07:04:52;23.60;72.00
25906;DHT22;13713;52.552;13.204;2023-07-29T07:07:17;23.60;72.00
25906;DHT22;13713;52.552;13.204;2023-07-29T07:09:43;23.60;72.10
25906;DHT22;13713;52.552;13.204;2023-07-29T07:12:08;23.60;72.10
25906;DHT22;13713;52.552;13.204;2023-07-29T07:14:34;23.60;72.20
25906;DHT22;13713;52.552;13.204;2023-07-29T07:17:00;23.60;72.20
25906;DHT22;13713;52.552;13.204;2023-07-29T07:19:25;23.60;72.20
25906;DHT22;13713;52.552;13.204;2023-07-29T07:21:51;23.60;72.20
25906;DHT22;13713;52.552;13.204;2023-07-29T07:24:16;23.60;72.20
25906;DHT22;13713;52.552;13.204;2023-07-29T07:26:42;23.60;72.20
25906;DHT22;13713;52.552;13.204;2023-07-29T07:29:08;23.60;72.20
25906;DHT22;13713;52.552;13.204;2023-07-29T07:31:33;23.60;72.20
25906;DHT22;13713;52.552;13.204;2023-07-29T07:33:59;23.60;72.20
25906;DHT22;13713;52.552;13.204;2023-07-29T07:36:27;23.60;72.20
25906;DHT22;13713;52.552;13.204;2023-07-29T07:38:53;23.60;72.20
25906;DHT22;13713;52.552;13.204;2023-07-29T07:41:18;23.60;72.20
25906;DHT22;13713;52.552;13.204;2023-07-29T07:43:44;23.60;72.20
25906;DHT22;13713;52.552;13.204;2023-07-29T07:46:09;23.60;72.20
25906;DHT22;13713;52.552;13.204;2023-07-29T07:48:35;23.60;72.20
25906;DHT22;13713;52.552;13.204;2023-07-29T07:51:09;23.60;72.20
25906;DHT22;13713;52.552;13.204;2023-07-29T07:53:34;23.60;72.20
25906;DHT22;13713;52.552;13.204;2023-07-29T07:56:00;23.60;72.90
25906;DHT22;13713;52.552;13.204;2023-07-29T07:58:26;23.60;72.10
25906;DHT22;13713;52.552;13.204;2023-07-29T08:00:51;23.60;72.10
25906;DHT22;13713;52.552;13.204;2023-07-29T08:03:20;23.60;72.10
25906;DHT22;13713;52.552;13.204;2023-07-29T08:05:45;23.60;72.00
25906;DHT22;13713;52.552;13.204;2023-07-29T08:08:11;23.60;72.00
25906;DHT22;13713;52.552;13.204;2023-07-29T08:10:36;23.60;72.10
25906;DHT22;13713;52.552;13.204;2023-07-29T08:13:02;23.70;72.10
25906;DHT22;13713;52.552;13.204;2023-07-29T08:15:28;23.70;72.10
25906;DHT22;13713;52.552;13.204;2023-07-29T08:17:53;23.60;72.00
25906;DHT22;13713;52.552;13.204;2023-07-29T08:20:19;23.70;72.10
25906;DHT22;13713;52.552;13.204;2023-07-29T08:22:44;23.70;72.10
25906;DHT22;13713;52.552;13.204;2023-07-29T08:25:10;23.70;72.10
25906;DHT22;13713;52.552;13.204;2023-07-29T08:27:36;23.70;72.10
25906;DHT22;13713;52.552;13.204;2023-07-29T08:30:01;23.70;72.10
25906;DHT22;13713;52.552;13.204;2023-07-29T08:32:27;23.60;72.10
25906;DHT22;13713;52.552;13.204;2023-07-29T08:34:53;23.70;72.10
25906;DHT22;13713;52.552;13.204;2023-07-29T08:37:18;23.70;72.10
25906;DHT22;13713;52.552;13.204;2023-07-29T08:39:44;23.70;72.20
25906;DHT22;13713;52.552;13.204;2023-07-29T08:42:11;23.70;72.10
25906;DHT22;13713;52.552;13.204;2023-07-29T08:44:43;23.70;72.90
25906;DHT22;13713;52.552;13.204;2023-07-29T08:47:09;23.70;72.10
25906;DHT22;13713;52.552;13.204;2023-07-29T08:49:35;23.70;72.10
25906;DHT22;13713;52.552;13.204;2023-07-29T08:52:01;23.70;72.10
25906;DHT22;13713;52.552;13.204;2023-07-29T08:54:26;23.70;72.10
25906;DHT22;13713;52.552;13.204;2023-07-29T08:56:52;23.70;72.10
25906;DHT22;13713;52.552;13.204;2023-07-29T08:59:18;23.70;72.20
25906;DHT22;13713;52.552;13.204;2023-07-29T09:01:44;23.60;72.10
25906;DHT22;13713;52.552;13.204;2023-07-29T09:04:10;23.70;72.20
25906;DHT22;13713;52.552;13.204;2023-07-29T09:06:35;23.70;72.20
25906;DHT22;13713;52.552;13.204;2023-07-29T09:09:03;23.60;72.20
25906;DHT22;13713;52.552;13.204;2023-07-29T09:11:29;23.60;72.20
25906;DHT22;13713;52.552;13.204;2023-07-29T09:13:55;23.60;72.20
25906;DHT22;13713;52.552;13.204;2023-07-29T09:16:21;23.60;72.20
25906;DHT22;13713;52.552;13.204;2023-07-29T09:18:50;23.60;72.20
25906;DHT22;13713;52.552;13.204;2023-07-29T09:21:22;23.70;72.30
25906;DHT22;13713;52.552;13.204;2023-07-29T09:23:49;23.60;72.20
25906;DHT22;13713;52.552;13.204;2023-07-29T09:26:18;23.60;72.20
25906;DHT22;13713;52.552;13.204;2023-07-29T09:28:50;23.60;72.30
25906;DHT22;13713;52.552;13.204;2023-07-29T09:31:20;23.60;72.30
25906;DHT22;13713;52.552;13.204;2023-07-29T09:33:46;23.60;72.30
25906;DHT22;13713;52.552;13.204;2023-07-29T09:36:11;23.60;72.30
25906;DHT22;13713;52.552;13.204;2023-07-29T09:38:37;23.60;72.30
25906;DHT22;13713;52.552;13.204;2023-07-29T09:41:03;23.60;72.30
25906;DHT22;13713;52.552;13.204;2023-07-29T09:43:29;23.60;72.20
25906;DHT22;13713;52.552;13.204;2023-07-29T09:45:54;23.60;72.30
25906;DHT22;13713;52.552;13.204;2023-07-29T09:48:23;23.60;72.30
25906;DHT22;13713;52.552;13.204;2023-07-29T09:50:49;23.60;72.30
25906;DHT22;13713;52.552;13.204;2023-07-29T09:53:14;23.60;72.40
25906;DHT22;13713;52.552;13.204;2023-07-29T09:55:40;23.60;72.30
25906;DHT22;13713;52.552;13.204;2023-07-29T09:58:11;23.60;72.30
25906;DHT22;13713;52.552;13.204;2023-07-29T10:00:36;23.60;72.40
25906;DHT22;13713;52.552;13.204;2023-07-29T10:03:04;23.60;72.30
25906;DHT22;13713;52.552;13.204;2023-07-29T10:05:30;23.60;72.30
25906;DHT22;13713;52.552;13.204;2023-07-29T10:07:55;23.60;72.30
25906;DHT22;13713;52.552;13.204;2023-07-29T10:10:21;23.60;72.30
25906;DHT22;13713;52.552;13.204;2023-07-29T10:12:47;23.60;72.30
25906;DHT22;13713;52.552;13.204;2023-07-29T10:15:13;23.60;72.30
25906;DHT22;13713;52.552;13.204;2023-07-29T10:17:39;23.60;72.30
25906;DHT22;13713;52.552;13.204;2023-07-29T10:20:06;23.60;72.40
25906;DHT22;13713;52.552;13.204;2023-07-29T10:22:39;23.60;72.40
25906;DHT22;13713;52.552;13.204;2023-07-29T10:27:35;23.60;72.50
25906;DHT22;13713;52.552;13.204;2023-07-29T10:30:03;23.60;72.40
25906;DHT22;13713;52.552;13.204;2023-07-29T10:32:29;23.60;72.50
25906;DHT22;13713;52.552;13.204;2023-07-29T10:34:56;23.60;72.50
25906;DHT22;13713;52.552;13.204;2023-07-29T10:37:22;23.60;72.50
25906;DHT22;13713;52.552;13.204;2023-07-29T10:39:52;23.60;72.50
25906;DHT22;13713;52.552;13.204;2023-07-29T10:42:18;23.60;72.50
25906;DHT22;13713;52.552;13.204;2023-07-29T10:44:47;23.60;72.50
25906;DHT22;13713;52.552;13.204;2023-07-29T10:47:18;23.60;72.50
25906;DHT22;13713;52.552;13.204;2023-07-29T10:49:44;23.60;72.60
25906;DHT22;13713;52.552;13.204;2023-07-29T10:52:14;23.60;72.60
25906;DHT22;13713;52.552;13.204;2023-07-29T10:54:44;23.60;72.60
25906;DHT22;13713;52.552;13.204;2023-07-29T10:57:18;23.60;72.60
25906;DHT22;13713;52.552;13.204;2023-07-29T10:59:56;23.60;72.60
25906;DHT22;13713;52.552;13.204;2023-07-29T11:02:22;23.60;72.60
25906;DHT22;13713;52.552;13.204;2023-07-29T11:04:53;23.60;72.70
25906;DHT22;13713;52.552;13.204;2023-07-29T11:07:19;23.60;72.60
25906;DHT22;13713;52.552;13.204;2023-07-29T11:15:03;23.60;72.70
25906;DHT22;13713;52.552;13.204;2023-07-29T11:17:32;23.60;72.70
25906;DHT22;13713;52.552;13.204;2023-07-29T11:20:00;23.60;72.70
25906;DHT22;13713;52.552;13.204;2023-07-29T11:22:26;23.50;72.70
25906;DHT22;13713;52.552;13.204;2023-07-29T11:24:51;23.60;72.70
25906;DHT22;13713;52.552;13.204;2023-07-29T11:27:17;23.60;72.80
25906;DHT22;13713;52.552;13.204;2023-07-29T11:29:43;23.60;72.80
25906;DHT22;13713;52.552;13.204;2023-07-29T11:32:09;23.60;72.90
25906;DHT22;13713;52.552;13.204;2023-07-29T11:34:35;23.60;72.80
25906;DHT22;13713;52.552;13.204;2023-07-29T11:37:00;23.60;72.80
25906;DHT22;13713;52.552;13.204;2023-07-29T11:39:26;23.60;72.90
25906;DHT22;13713;52.552;13.204;2023-07-29T11:41:51;23.60;72.90
25906;DHT22;13713;52.552;13.204;2023-07-29T11:44:17;23.50;72.80
25906;DHT22;13713;52.552;13.204;2023-07-29T11:46:43;23.60;72.90
25906;DHT22;13713;52.552;13.204;2023-07-29T11:49:09;23.60;72.90
25906;DHT22;13713;52.552;13.204;2023-07-29T11:51:34;23.60;72.90
25906;DHT22;13713;52.552;13.204;2023-07-29T11:54:00;23.60;72.90
25906;DHT22;13713;52.552;13.204;2023-07-29T11:56:26;23.60;72.90
25906;DHT22;13713;52.552;13.204;2023-07-29T11:58:53;23.60;72.90
25906;DHT22;13713;52.552;13.204;2023-07-29T12:01:18;23.60;72.90
25906;DHT22;13713;52.552;13.204;2023-07-29T12:03:44;23.50;72.90
25906;DHT22;13713;52.552;13.204;2023-07-29T12:06:10;23.60;73.00
25906;DHT22;13713;52.552;13.204;2023-07-29T12:08:36;23.60;72.90
25906;DHT22;13713;52.552;13.204;2023-07-29T12:11:01;23.60;73.00
25906;DHT22;13713;52.552;13.204;2023-07-29T12:13:27;23.60;73.00
25906;DHT22;13713;52.552;13.204;2023-07-29T12:16:00;23.60;73.00
25906;DHT22;13713;52.552;13.204;2023-07-29T12:18:29;23.50;73.00
25906;DHT22;13713;52.552;13.204;2023-07-29T12:20:55;23.50;73.00
25906;DHT22;13713;52.552;13.204;2023-07-29T12:23:24;23.50;73.00
25906;DHT22;13713;52.552;13.204;2023-07-29T12:25:49;23.50;73.00
25906;DHT22;13713;52.552;13.204;2023-07-29T12:28:15;23.50;73.10
25906;DHT22;13713;52.552;13.204;2023-07-29T12:30:41;23.60;73.10
25906;DHT22;13713;52.552;13.204;2023-07-29T12:33:07;23.50;73.00
25906;DHT22;13713;52.552;13.204;2023-07-29T12:35:34;23.50;73.10
25906;DHT22;13713;52.552;13.204;2023-07-29T12:37:59;23.60;73.20
25906;DHT22;13713;52.552;13.204;2023-07-29T12:40:25;23.60;73.10
25906;DHT22;13713;52.552;13.204;2023-07-29T12:42:51;23.50;73.10
25906;DHT22;13713;52.552;13.204;2023-07-29T12:45:17;23.50;73.10
25906;DHT22;13713;52.552;13.204;2023-07-29T12:47:43;23.50;73.20
25906;DHT22;13713;52.552;13.204;2023-07-29T12:50:09;23.50;73.20
25906;DHT22;13713;52.552;13.204;2023-07-29T12:52:34;23.60;73.20
25906;DHT22;13713;52.552;13.204;2023-07-29T12:55:00;23.60;73.20
25906;DHT22;13713;52.552;13.204;2023-07-29T12:57:26;23.50;73.20
25906;DHT22;13713;52.552;13.204;2023-07-29T12:59:51;23.50;73.20
25906;DHT22;13713;52.552;13.204;2023-07-29T13:02:17;23.60;73.20
25906;DHT22;13713;52.552;13.204;2023-07-29T13:04:42;23.60;73.30
25906;DHT22;13713;52.552;13.204;2023-07-29T13:07:08;23.60;73.30
25906;DHT22;13713;52.552;13.204;2023-07-29T13:09:33;23.50;73.20
25906;DHT22;13713;52.552;13.204;2023-07-29T13:11:59;23.50;73.20
25906;DHT22;13713;52.552;13.204;2023-07-29T13:14:24;23.50;73.20
25906;DHT22;13713;52.552;13.204;2023-07-29T13:16:51;23.60;73.50
25906;DHT22;13713;52.552;13.204;2023-07-29T13:19:18;23.60;73.40
25906;DHT22;13713;52.552;13.204;2023-07-29T13:21:44;23.60;73.40
25906;DHT22;13713;52.552;13.204;2023-07-29T13:24:09;23.60;73.50
25906;DHT22;13713;52.552;13.204;2023-07-29T13:26:35;23.60;73.50
25906;DHT22;13713;52.552;13.204;2023-07-29T13:29:01;23.60;73.50
25906;DHT22;13713;52.552;13.204;2023-07-29T13:31:26;23.60;73.50
25906;DHT22;13713;52.552;13.204;2023-07-29T13:33:52;23.50;73.40
25906;DHT22;13713;52.552;13.204;2023-07-29T13:36:17;23.60;73.50
25906;DHT22;13713;52.552;13.204;2023-07-29T13:38:43;23.60;73.50
25906;DHT22;13713;52.552;13.204;2023-07-29T13:41:08;23.60;73.60
25906;DHT22;13713;52.552;13.204;2023-07-29T13:43:34;23.60;73.60
25906;DHT22;13713;52.552;13.204;2023-07-29T13:46:00;23.60;73.60
25906;DHT22;13713;52.552;13.204;2023-07-29T13:48:25;23.60;73.60
25906;DHT22;13713;52.552;13.204;2023-07-29T13:50:51;23.60;73.60
25906;DHT22;13713;52.552;13.204;2023-07-29T13:53:17;23.60;73.60
25906;DHT22;13713;52.552;13.204;2023-07-29T13:55:43;23.60;73.70
25906;DHT22;13713;52.552;13.204;2023-07-29T13:58:08;23.60;73.60
25906;DHT22;13713;52.552;13.204;2023-07-29T14:00:34;23.60;73.70
25906;DHT22;13713;52.552;13.204;2023-07-29T14:03:00;23.60;73.80
25906;DHT22;13713;52.552;13.204;2023-07-29T14:05:25;23.60;73.80
25906;DHT22;13713;52.552;13.204;2023-07-29T14:07:51;23.60;73.80
25906;DHT22;13713;52.552;13.204;2023-07-29T14:10:17;23.60;73.80
25906;DHT22;13713;52.552;13.204;2023-07-29T14:12:42;23.60;73.90
25906;DHT22;13713;52.552;13.204;2023-07-29T14:15:08;23.60;73.90
25906;DHT22;13713;52.552;13.204;2023-07-29T14:17:33;23.60;73.90
25906;DHT22;13713;52.552;13.204;2023-07-29T14:19:59;23.60;73.90
25906;DHT22;13713;52.552;13.204;2023-07-29T14:22:25;23.60;73.90
25906;DHT22;13713;52.552;13.204;2023-07-29T14:24:50;23.60;74.00
25906;DHT22;13713;52.552;13.204;2023-07-29T14:27:16;23.60;74.00
25906;DHT22;13713;52.552;13.204;2023-07-29T14:29:42;23.60;74.00
25906;DHT22;13713;52.552;13.204;2023-07-29T14:32:08;23.60;74.00
25906;DHT22;13713;52.552;13.204;2023-07-29T14:34:33;23.60;74.00
25906;DHT22;13713;52.552;13.204;2023-07-29T14:36:59;23.60;74.00
25906;DHT22;13713;52.552;13.204;2023-07-29T14:39:24;23.60;74.10
25906;DHT22;13713;52.552;13.204;2023-07-29T14:41:50;23.60;74.10
25906;DHT22;13713;52.552;13.204;2023-07-29T14:44:15;23.60;74.10
25906;DHT22;13713;52.552;13.204;2023-07-29T14:46:41;23.60;74.10
25906;DHT22;13713;52.552;13.204;2023-07-29T14:49:07;23.60;74.10
25906;DHT22;13713;52.552;13.204;2023-07-29T14:51:32;23.60;74.20
25906;DHT22;13713;52.552;13.204;2023-07-29T14:53:58;23.60;74.20
25906;DHT22;13713;52.552;13.204;2023-07-29T14:56:24;23.60;74.20
25906;DHT22;13713;52.552;13.204;2023-07-29T14:58:49;23.60;74.20
25906;DHT22;13713;52.552;13.204;2023-07-29T15:01:15;23.60;74.20
25906;DHT22;13713;52.552;13.204;2023-07-29T15:03:41;23.60;74.20
25906;DHT22;13713;52.552;13.204;2023-07-29T15:06:07;23.60;74.30
25906;DHT22;13713;52.552;13.204;2023-07-29T15:08:32;23.60;74.30
25906;DHT22;13713;52.552;13.204;2023-07-29T15:10:58;23.60;74.30
25906;DHT22;13713;52.552;13.204;2023-07-29T15:13:23;23.60;74.40
25906;DHT22;13713;52.552;13.204;2023-07-29T15:15:49;23.60;74.40
25906;DHT22;13713;52.552;13.204;2023-07-29T15:18:16;23.60;74.40